createdAt,value
2023-02-12T00:03:22.520Z,65464.06
2023-02-12T00:08:28.247Z,65519.94
2023-02-12T00:13:32.848Z,65472.59
2023-02-12T00:18:37.309Z,65487.53
2023-02-12T00:23:43.092Z,65484.97
2023-02-12T00:28:47.708Z,65548.94
2023-02-12T00:33:52.010Z,65510.13
2023-02-12T00:38:58.866Z,65520.03
2023-02-12T00:44:03.287Z,65572.81
2023-02-12T00:49:07.697Z,65518.00
2023-02-12T00:54:14.109Z,65550.53
2023-02-12T00:59:18.600Z,65558.88
2023-02-12T01:04:23.162Z,65530.38
2023-02-12T01:09:28.966Z,65481.66
2023-02-12T01:14:33.075Z,65501.94
2023-02-12T01:19:37.464Z,65508.22
2023-02-12T01:24:43.278Z,65508.53
2023-02-12T01:29:47.335Z,65561.97
2023-02-12T01:34:51.640Z,65493.41
2023-02-12T01:39:59.839Z,65478.81
2023-02-12T01:45:22.365Z,65526.63
2023-02-12T01:50:27.081Z,65556.31
2023-02-12T01:55:32.946Z,65507.25
2023-02-12T02:00:37.528Z,65539.31
2023-02-12T02:05:47.741Z,65558.72
2023-02-12T02:10:53.620Z,65568.13
2023-02-12T02:16:03.574Z,65570.69
2023-02-12T02:21:43.056Z,65584.66
2023-02-12T02:27:12.476Z,65570.91
2023-02-12T02:32:24.823Z,65519.31
2023-02-12T02:37:34.180Z,65529.84
2023-02-12T02:42:45.273Z,65461.94
2023-02-12T02:47:57.254Z,65462.91
2023-02-12T02:53:06.102Z,65458.84
2023-02-12T02:58:13.617Z,65428.28
2023-02-12T03:03:25.377Z,65417.19
2023-02-12T03:08:34.412Z,65432.00
2023-02-12T03:13:44.841Z,65424.22
2023-02-12T03:18:54.657Z,65411.88
2023-02-12T03:24:03.763Z,65436.91
2023-02-12T03:29:08.374Z,65450.03
2023-02-12T03:34:21.787Z,65414.00
2023-02-12T03:39:32.254Z,65398.44
2023-02-12T03:44:48.409Z,65393.75
2023-02-12T03:50:03.044Z,65385.44
2023-02-12T03:55:08.490Z,65355.94
2023-02-12T04:00:15.835Z,65315.38
2023-02-12T04:05:24.683Z,65273.44
2023-02-12T04:10:34.787Z,65297.94
2023-02-12T04:15:52.647Z,65270.88
2023-02-12T04:21:06.161Z,65271.31
2023-02-12T04:26:18.858Z,65266.41
2023-02-12T04:31:31.118Z,65261.22
2023-02-12T04:36:43.444Z,65247.69
2023-02-12T04:41:48.131Z,65272.38
2023-02-12T04:46:52.968Z,65247.47
2023-02-12T04:51:59.734Z,65281.00
2023-02-12T04:57:05.247Z,65294.09
2023-02-12T05:02:09.645Z,65246.72
2023-02-12T05:07:15.371Z,65264.94
2023-02-12T05:12:19.773Z,65313.44
2023-02-12T05:17:24.950Z,65265.56
2023-02-12T05:22:30.810Z,65264.06
2023-02-12T05:27:35.223Z,65267.16
2023-02-12T05:32:39.713Z,65215.34
2023-02-12T05:37:45.518Z,65188.56
2023-02-12T05:42:49.516Z,65181.44
2023-02-12T05:47:53.956Z,65239.19
2023-02-12T05:53:01.656Z,65228.13
2023-02-12T05:58:06.305Z,65225.47
2023-02-12T06:03:10.696Z,65268.97
2023-02-12T06:08:16.577Z,65242.47
2023-02-12T06:13:21.071Z,65231.75
2023-02-12T06:18:26.105Z,65254.41
2023-02-12T06:23:32.053Z,65229.81
2023-02-12T06:28:36.115Z,65212.16
2023-02-12T06:33:42.795Z,65273.56
2023-02-12T06:38:50.190Z,65233.44
2023-02-12T06:43:54.656Z,65220.59
2023-02-12T06:49:01.068Z,65204.72
2023-02-12T06:54:07.121Z,65171.75
2023-02-12T06:59:15.844Z,65187.72
2023-02-12T07:04:20.333Z,65197.81
2023-02-12T07:09:27.621Z,65192.06
2023-02-12T07:14:32.332Z,65235.56
2023-02-12T07:19:36.825Z,65214.72
2023-02-12T07:24:43.644Z,65180.38
2023-02-12T07:29:48.107Z,65208.03
2023-02-12T07:34:52.707Z,65226.53
2023-02-12T07:39:58.494Z,65209.50
2023-02-12T07:45:03.140Z,65273.97
2023-02-12T07:50:09.319Z,65312.81
2023-02-12T07:55:15.173Z,65298.66
2023-02-12T08:00:20.576Z,65303.88
2023-02-12T08:05:25.043Z,65324.53
2023-02-12T08:10:32.448Z,65324.53
2023-02-12T08:15:37.103Z,65292.59
2023-02-12T08:20:41.458Z,65231.53
2023-02-12T08:25:47.335Z,65284.09
2023-02-12T08:30:51.422Z,65337.41
2023-02-12T08:36:04.216Z,65289.41
2023-02-12T08:41:11.882Z,65362.66
2023-02-12T08:46:18.023Z,65436.38
2023-02-12T08:51:24.587Z,65374.47
2023-02-12T08:56:33.014Z,65338.38
2023-02-12T09:01:41.108Z,65298.38
2023-02-12T09:06:46.776Z,65289.94
2023-02-12T09:11:53.136Z,65308.66
2023-02-12T09:16:58.445Z,65327.75
2023-02-12T09:22:03.096Z,65439.22
2023-02-12T09:27:09.003Z,65452.16
2023-02-12T09:32:13.708Z,65400.69
2023-02-12T09:37:18.254Z,65444.91
2023-02-12T09:42:34.074Z,65378.84
2023-02-12T09:47:46.274Z,65366.38
2023-02-12T09:52:51.881Z,65391.19
2023-02-12T09:57:58.093Z,65532.19
2023-02-12T10:03:05.929Z,65522.81
2023-02-12T10:08:32.707Z,65447.66
2023-02-12T10:13:47.847Z,65417.09
2023-02-12T10:19:20.203Z,65582.00
2023-02-12T10:24:49.433Z,65430.63
2023-02-12T10:29:59.283Z,65418.78
2023-02-12T10:35:14.056Z,65612.41
2023-02-12T10:40:21.946Z,65593.97
2023-02-12T10:45:31.650Z,65509.91
2023-02-12T10:50:51.420Z,65385.22
2023-02-12T10:56:25.027Z,65355.41
2023-02-12T11:01:33.179Z,65489.03
2023-02-12T11:06:37.812Z,65410.28
2023-02-12T11:11:42.450Z,65505.56
2023-02-12T11:16:54.506Z,65349.22
2023-02-12T11:22:08.146Z,65383.72
2023-02-12T11:27:24.646Z,65412.31
2023-02-12T11:32:31.723Z,65411.00
2023-02-12T11:37:41.334Z,65459.28
2023-02-12T11:42:50.802Z,65450.41
2023-02-12T11:47:56.819Z,65406.53
2023-02-12T11:53:08.133Z,65432.09
2023-02-12T11:58:17.406Z,65474.63
2023-02-12T12:03:29.972Z,65422.97
2023-02-12T12:08:40.830Z,65359.56
2023-02-12T12:13:50.357Z,65429.00
2023-02-12T12:19:17.128Z,65382.56
2023-02-12T12:24:28.816Z,65358.19
2023-02-12T12:29:48.170Z,65325.19
2023-02-12T12:34:54.276Z,65322.41
2023-02-12T12:40:30.513Z,65370.09
2023-02-12T12:46:08.401Z,65380.97
2023-02-12T12:51:26.553Z,65393.75
2023-02-12T12:56:45.234Z,65409.63
2023-02-12T13:02:06.322Z,65397.59
2023-02-12T13:07:27.581Z,65446.41
2023-02-12T13:13:05.693Z,65351.06
2023-02-12T13:18:23.221Z,65371.47
2023-02-12T13:23:40.285Z,65416.88
2023-02-12T13:28:49.207Z,65381.50
2023-02-12T13:33:57.976Z,65399.63
2023-02-12T13:39:12.132Z,65410.91
2023-02-12T13:44:26.504Z,65279.94
2023-02-12T13:49:41.061Z,65354.34
2023-02-12T13:54:59.105Z,65429.66
2023-02-12T14:00:08.448Z,65643.25
2023-02-12T14:05:29.962Z,65627.78
2023-02-12T14:10:38.491Z,65778.88
2023-02-12T14:15:46.025Z,65616.06
2023-02-12T14:21:10.765Z,65625.00
2023-02-12T14:26:18.424Z,65586.72
2023-02-12T14:31:33.300Z,65476.34
2023-02-12T14:36:41.588Z,65368.19
2023-02-12T14:41:48.472Z,65382.03
2023-02-12T14:46:54.010Z,65362.34
2023-02-12T14:52:05.074Z,65387.56
2023-02-12T14:57:19.994Z,65460.88
2023-02-12T15:02:27.100Z,65444.91
2023-02-12T15:07:37.330Z,65441.06
2023-02-12T15:12:47.517Z,65449.34
2023-02-12T15:17:59.645Z,65512.91
2023-02-12T15:23:05.155Z,65454.06
2023-02-12T15:28:20.655Z,65436.47
2023-02-12T15:33:30.425Z,65419.97
2023-02-12T15:38:37.556Z,65546.78
2023-02-12T15:43:43.840Z,65571.75
2023-02-12T15:48:47.976Z,65573.03
2023-02-12T15:53:53.064Z,65520.16
2023-02-12T15:59:01.889Z,65510.56
2023-02-12T16:04:08.866Z,65497.13
2023-02-12T16:09:19.190Z,65496.06
2023-02-12T16:14:29.463Z,65411.88
2023-02-12T16:19:37.105Z,65344.66
2023-02-12T16:24:48.636Z,65294.19
2023-02-12T16:29:56.619Z,65235.16
2023-02-12T16:35:03.855Z,65230.97
2023-02-12T16:40:26.283Z,65223.56
2023-02-12T16:45:43.814Z,65235.16
2023-02-12T16:50:53.800Z,65249.41
2023-02-12T16:55:59.016Z,65281.53
2023-02-12T17:01:06.358Z,65262.06
2023-02-12T17:06:11.917Z,65361.81
2023-02-12T17:11:18.166Z,65277.06
2023-02-12T17:16:30.925Z,65150.69
2023-02-12T17:21:39.712Z,65202.41
2023-02-12T17:26:44.515Z,65172.41
2023-02-12T17:31:54.018Z,65106.06
2023-02-12T17:36:58.604Z,65185.16
2023-02-12T17:42:03.457Z,65172.19
2023-02-12T17:47:09.581Z,65293.66
2023-02-12T17:52:14.740Z,65150.50
2023-02-12T17:57:19.264Z,65126.69
2023-02-12T18:02:25.370Z,65087.69
2023-02-12T18:07:30.535Z,65295.81
2023-02-12T18:12:36.128Z,65238.88
2023-02-12T18:17:43.826Z,65166.66
2023-02-12T18:22:50.157Z,65104.91
2023-02-12T18:27:55.202Z,65240.47
2023-02-12T18:33:01.331Z,65196.31
2023-02-12T18:38:06.187Z,65182.06
2023-02-12T18:43:10.828Z,65071.44
2023-02-12T18:48:17.000Z,65185.78
2023-02-12T18:53:21.595Z,65365.97
2023-02-12T18:58:26.835Z,65220.34
2023-02-12T19:03:32.969Z,65293.56
2023-02-12T19:08:37.826Z,65248.97
2023-02-12T19:13:42.590Z,65142.41
2023-02-12T19:18:51.689Z,65162.94
2023-02-12T19:23:57.199Z,65163.91
2023-02-12T19:29:03.326Z,65296.34
2023-02-12T19:34:16.129Z,65240.78
2023-02-12T19:39:22.832Z,65251.63
2023-02-12T19:44:27.537Z,65208.56
2023-02-12T19:49:34.292Z,65248.88
2023-02-12T19:54:39.047Z,65296.22
2023-02-12T19:59:46.543Z,65197.59
2023-02-12T20:04:52.642Z,65145.81
2023-02-12T20:09:57.378Z,65098.41
2023-02-12T20:15:04.372Z,65138.81
2023-02-12T20:20:13.529Z,65095.88
2023-02-12T20:25:18.510Z,65069.31
2023-02-12T20:30:23.453Z,65043.81
2023-02-12T20:35:29.808Z,65181.44
2023-02-12T20:40:34.850Z,65219.19
2023-02-12T20:45:39.598Z,65163.91
2023-02-12T20:50:45.734Z,65179.84
2023-02-12T20:55:50.327Z,65167.31
2023-02-12T21:00:55.473Z,65118.72
2023-02-12T21:06:02.071Z,65082.16
2023-02-12T21:11:12.014Z,65077.81
2023-02-12T21:16:18.398Z,65112.44
2023-02-12T21:21:26.604Z,65210.47
2023-02-12T21:26:34.449Z,65235.16
2023-02-12T21:31:40.829Z,65252.59
2023-02-12T21:36:48.416Z,65150.06
2023-02-12T21:41:53.775Z,65205.81
2023-02-12T21:46:58.763Z,65240.88
2023-02-12T21:52:06.806Z,65248.13
2023-02-12T21:57:13.922Z,65284.63
2023-02-12T22:02:18.527Z,65283.34
2023-02-12T22:07:24.743Z,65260.25
2023-02-12T22:12:32.458Z,65291.00
2023-02-12T22:17:36.977Z,65248.66
2023-02-12T22:22:43.127Z,65260.69
2023-02-12T22:27:47.716Z,65087.38
2023-02-12T22:32:52.251Z,65067.19
2023-02-12T22:37:58.355Z,65021.53
2023-02-12T22:43:02.946Z,65033.31
2023-02-12T22:48:07.475Z,65070.38
2023-02-12T22:53:13.431Z,65189.41
2023-02-12T22:58:18.241Z,65143.69
2023-02-12T23:03:23.093Z,65184.41
2023-02-12T23:08:29.075Z,65112.34
2023-02-12T23:13:33.223Z,65121.50
2023-02-12T23:18:38.191Z,65236.66
2023-02-12T23:23:44.075Z,65187.28
2023-02-12T23:28:48.126Z,65109.16
2023-02-12T23:33:52.985Z,65148.38
2023-02-12T23:38:59.422Z,65212.16
2023-02-12T23:44:03.867Z,65153.28
2023-02-12T23:49:08.908Z,65289.41
2023-02-12T23:54:14.996Z,65196.22
2023-02-12T23:59:19.455Z,65385.44
